GJW29LO CYYZ-KPHL
Flight info
| Callsign | GJW29LO |
|---|---|
| Flight time | 0h 52m |
| Altitude | 41000 |
| Route | RIGUS5 PSB BOJID4 |
| Aircraft | A332/H-SDE3GHIJ2J3J5M1RVWXY/LB2D1 |
Departure
| Time | 2026-05-07 19:29 |
|---|---|
| Airport | Toronto Pearson International Airport (CYYZ) |
Arrival
| Time | 2026-05-07 20:22 |
|---|---|
| Airport | Philadelphia International Airport (KPHL) |
| Time | Latitude | Longitude | Altitude | Speed | Heading |
|---|---|---|---|---|---|
| 2026-05-07 19:11 | 43.69390 | -79.65223 | 574 ft | 0 kts | 186° |
| 2026-05-07 19:25 | 43.69366 | -79.65239 | 571 ft | 7 kts | 206° |
| 2026-05-07 19:25 | 43.69308 | -79.65245 | 569 ft | 9 kts | 159° |
| 2026-05-07 19:25 | 43.69248 | -79.65168 | 568 ft | 17 kts | 135° |
| 2026-05-07 19:26 | 43.69146 | -79.65036 | 570 ft | 22 kts | 137° |
| 2026-05-07 19:26 | 43.69030 | -79.64884 | 567 ft | 15 kts | 136° |
| 2026-05-07 19:26 | 43.68972 | -79.64782 | 577 ft | 12 kts | 95° |
| 2026-05-07 19:26 | 43.69026 | -79.64684 | 574 ft | 15 kts | 46° |
| 2026-05-07 19:27 | 43.69109 | -79.64567 | 577 ft | 18 kts | 46° |
| 2026-05-07 19:27 | 43.69200 | -79.64433 | 579 ft | 20 kts | 47° |
| 2026-05-07 19:27 | 43.69307 | -79.64276 | 580 ft | 24 kts | 46° |
| 2026-05-07 19:27 | 43.69371 | -79.64072 | 572 ft | 20 kts | 107° |
| 2026-05-07 19:28 | 43.69272 | -79.63924 | 571 ft | 21 kts | 138° |
| 2026-05-07 19:28 | 43.69168 | -79.63868 | 574 ft | 14 kts | 208° |
| 2026-05-07 19:28 | 43.69147 | -79.63895 | 569 ft | 1 kts | 226° |
| 2026-05-07 19:28 | 43.69139 | -79.63907 | 571 ft | 4 kts | 226° |
| 2026-05-07 19:29 | 43.68978 | -79.64145 | 580 ft | 75 kts | 227° |
| 2026-05-07 19:29 | 43.68424 | -79.64949 | 579 ft | 153 kts | 226° |
| 2026-05-07 19:29 | 43.67633 | -79.66075 | 1475 ft | 165 kts | 229° |
| 2026-05-07 19:29 | 43.66892 | -79.67378 | 2416 ft | 185 kts | 237° |
| 2026-05-07 19:30 | 43.66115 | -79.68974 | 3035 ft | 218 kts | 239° |
| 2026-05-07 19:30 | 43.65213 | -79.70824 | 3798 ft | 242 kts | 238° |
| 2026-05-07 19:30 | 43.64235 | -79.72781 | 4535 ft | 250 kts | 237° |
| 2026-05-07 19:30 | 43.63228 | -79.74751 | 5249 ft | 253 kts | 234° |
| 2026-05-07 19:31 | 43.61973 | -79.76490 | 6497 ft | 259 kts | 219° |
| 2026-05-07 19:31 | 43.60350 | -79.77590 | 7850 ft | 265 kts | 197° |
| 2026-05-07 19:31 | 43.58490 | -79.77626 | 9180 ft | 275 kts | 171° |
| 2026-05-07 19:31 | 43.56669 | -79.76775 | 10344 ft | 285 kts | 162° |
| 2026-05-07 19:32 | 43.54765 | -79.75654 | 10947 ft | 312 kts | 161° |
| 2026-05-07 19:32 | 43.52681 | -79.74389 | 11349 ft | 341 kts | 160° |
| 2026-05-07 19:32 | 43.50446 | -79.73035 | 12058 ft | 358 kts | 161° |
| 2026-05-07 19:32 | 43.48140 | -79.71642 | 13022 ft | 366 kts | 161° |
| 2026-05-07 19:33 | 43.45785 | -79.70224 | 13984 ft | 374 kts | 161° |
| 2026-05-07 19:33 | 43.43369 | -79.68794 | 14930 ft | 378 kts | 164° |
| 2026-05-07 19:33 | 43.40853 | -79.67854 | 15937 ft | 372 kts | 178° |
| 2026-05-07 19:33 | 43.38275 | -79.67616 | 16908 ft | 371 kts | 185° |
| 2026-05-07 19:34 | 43.35684 | -79.67557 | 17893 ft | 374 kts | 186° |
| 2026-05-07 19:34 | 43.33075 | -79.67520 | 18776 ft | 377 kts | 186° |
| 2026-05-07 19:34 | 43.30474 | -79.67478 | 19613 ft | 380 kts | 186° |
| 2026-05-07 19:34 | 43.27788 | -79.67428 | 20451 ft | 383 kts | 186° |
| 2026-05-07 19:35 | 43.25147 | -79.67376 | 21244 ft | 385 kts | 186° |
| 2026-05-07 19:35 | 43.22458 | -79.67334 | 22031 ft | 388 kts | 187° |
| 2026-05-07 19:35 | 43.19746 | -79.67298 | 22820 ft | 391 kts | 187° |
| 2026-05-07 19:35 | 43.17011 | -79.67263 | 23568 ft | 394 kts | 187° |
| 2026-05-07 19:36 | 43.14261 | -79.67225 | 24179 ft | 396 kts | 188° |
| 2026-05-07 19:36 | 43.11495 | -79.67187 | 24814 ft | 398 kts | 188° |
| 2026-05-07 19:36 | 43.08704 | -79.67150 | 25421 ft | 402 kts | 189° |
| 2026-05-07 19:36 | 43.05896 | -79.67113 | 25994 ft | 405 kts | 189° |
| 2026-05-07 19:37 | 43.03064 | -79.67076 | 26599 ft | 408 kts | 190° |
| 2026-05-07 19:37 | 43.00215 | -79.67037 | 27190 ft | 411 kts | 190° |
| 2026-05-07 19:37 | 42.97341 | -79.66999 | 27773 ft | 415 kts | 190° |
| 2026-05-07 19:37 | 42.94447 | -79.66959 | 28346 ft | 417 kts | 191° |
| 2026-05-07 19:38 | 42.91537 | -79.66918 | 28956 ft | 419 kts | 191° |
| 2026-05-07 19:38 | 42.88609 | -79.66880 | 29515 ft | 423 kts | 192° |
| 2026-05-07 19:38 | 42.85668 | -79.66931 | 30049 ft | 421 kts | 195° |
| 2026-05-07 19:38 | 42.82745 | -79.67196 | 30454 ft | 423 kts | 196° |
| 2026-05-07 19:39 | 42.79794 | -79.67519 | 30796 ft | 428 kts | 196° |
| 2026-05-07 19:39 | 42.76807 | -79.67853 | 31149 ft | 433 kts | 196° |
| 2026-05-07 19:39 | 42.73823 | -79.68183 | 31456 ft | 438 kts | 196° |
| 2026-05-07 19:39 | 42.70781 | -79.68512 | 32144 ft | 433 kts | 195° |
| 2026-05-07 19:40 | 42.67814 | -79.68822 | 33181 ft | 423 kts | 195° |
| 2026-05-07 19:40 | 42.64890 | -79.69134 | 33884 ft | 420 kts | 195° |
| 2026-05-07 19:40 | 42.61968 | -79.69455 | 34322 ft | 421 kts | 195° |
| 2026-05-07 19:40 | 42.59038 | -79.69777 | 34754 ft | 422 kts | 195° |
| 2026-05-07 19:41 | 42.56107 | -79.70097 | 35189 ft | 422 kts | 195° |
| 2026-05-07 19:41 | 42.53175 | -79.70416 | 35587 ft | 422 kts | 195° |
| 2026-05-07 19:41 | 42.50243 | -79.70733 | 36025 ft | 423 kts | 195° |
| 2026-05-07 19:41 | 42.47301 | -79.71052 | 36421 ft | 424 kts | 195° |
| 2026-05-07 19:42 | 42.44392 | -79.71367 | 36816 ft | 425 kts | 195° |
| 2026-05-07 19:42 | 42.41436 | -79.71686 | 37215 ft | 426 kts | 195° |
| 2026-05-07 19:42 | 42.38476 | -79.71912 | 37812 ft | 427 kts | 191° |
| 2026-05-07 19:42 | 42.35491 | -79.71669 | 38516 ft | 432 kts | 182° |
| 2026-05-07 19:43 | 42.32529 | -79.70797 | 38972 ft | 442 kts | 173° |
| 2026-05-07 19:43 | 42.29631 | -79.69224 | 39334 ft | 456 kts | 163° |
| 2026-05-07 19:43 | 42.26900 | -79.66938 | 39680 ft | 469 kts | 152° |
| 2026-05-07 19:43 | 42.24396 | -79.64039 | 40019 ft | 477 kts | 146° |
| 2026-05-07 19:44 | 42.21992 | -79.60957 | 40368 ft | 478 kts | 145° |
| 2026-05-07 19:44 | 42.19590 | -79.57844 | 40701 ft | 477 kts | 145° |
| 2026-05-07 19:44 | 42.17188 | -79.54749 | 40888 ft | 480 kts | 145° |
| 2026-05-07 19:44 | 42.14747 | -79.51627 | 40933 ft | 487 kts | 145° |
| 2026-05-07 19:45 | 42.09741 | -79.45263 | 40926 ft | 503 kts | 145° |
| 2026-05-07 19:45 | 42.04597 | -79.38743 | 40926 ft | 518 kts | 145° |
| 2026-05-07 19:46 | 41.99329 | -79.32073 | 40930 ft | 520 kts | 145° |
| 2026-05-07 19:46 | 41.94055 | -79.25413 | 40928 ft | 520 kts | 145° |
| 2026-05-07 19:47 | 41.88783 | -79.18776 | 40897 ft | 519 kts | 146° |
| 2026-05-07 19:47 | 41.83500 | -79.12147 | 40928 ft | 519 kts | 146° |
| 2026-05-07 19:48 | 41.78251 | -79.05575 | 40905 ft | 520 kts | 146° |
| 2026-05-07 19:48 | 41.72984 | -78.98995 | 40916 ft | 519 kts | 146° |
| 2026-05-07 19:49 | 41.67697 | -78.92406 | 40907 ft | 519 kts | 146° |
| 2026-05-07 19:49 | 41.62413 | -78.85837 | 40908 ft | 519 kts | 146° |
| 2026-05-07 19:50 | 41.57124 | -78.79276 | 40888 ft | 518 kts | 146° |
| 2026-05-07 19:50 | 41.51835 | -78.72730 | 40885 ft | 519 kts | 146° |
| 2026-05-07 19:51 | 41.46537 | -78.66190 | 40888 ft | 519 kts | 146° |
| 2026-05-07 19:51 | 41.41241 | -78.59667 | 40854 ft | 517 kts | 147° |
| 2026-05-07 19:52 | 41.35946 | -78.53169 | 40889 ft | 517 kts | 147° |
| 2026-05-07 19:52 | 41.30698 | -78.46730 | 40891 ft | 516 kts | 147° |
| 2026-05-07 19:53 | 41.25402 | -78.40252 | 40892 ft | 517 kts | 147° |
| 2026-05-07 19:53 | 41.20113 | -78.33800 | 40903 ft | 517 kts | 147° |
| 2026-05-07 19:54 | 41.15711 | -78.28436 | 40897 ft | 516 kts | 147° |
| 2026-05-07 19:54 | 41.10405 | -78.21987 | 40901 ft | 517 kts | 147° |
| 2026-05-07 19:55 | 41.05097 | -78.15557 | 40899 ft | 517 kts | 147° |
| 2026-05-07 19:55 | 40.99779 | -78.09124 | 40894 ft | 517 kts | 147° |
| 2026-05-07 19:56 | 40.94461 | -78.02688 | 40888 ft | 517 kts | 147° |
| 2026-05-07 19:56 | 40.89367 | -77.95873 | 40883 ft | 527 kts | 141° |
| 2026-05-07 19:57 | 40.84563 | -77.88556 | 40887 ft | 526 kts | 140° |
| 2026-05-07 19:57 | 40.79801 | -77.81296 | 40886 ft | 524 kts | 140° |
| 2026-05-07 19:58 | 40.75016 | -77.74038 | 40873 ft | 524 kts | 140° |
| 2026-05-07 19:58 | 40.70234 | -77.66793 | 40868 ft | 524 kts | 140° |
| 2026-05-07 19:59 | 40.65431 | -77.59553 | 40863 ft | 524 kts | 141° |
| 2026-05-07 19:59 | 40.60626 | -77.52330 | 40872 ft | 524 kts | 141° |
| 2026-05-07 20:00 | 40.55823 | -77.45121 | 40879 ft | 523 kts | 141° |
| 2026-05-07 20:00 | 40.51050 | -77.37971 | 40880 ft | 524 kts | 141° |
| 2026-05-07 20:01 | 40.46244 | -77.30784 | 40558 ft | 521 kts | 141° |
| 2026-05-07 20:01 | 40.43847 | -77.27208 | 40323 ft | 520 kts | 142° |
| 2026-05-07 20:01 | 40.41451 | -77.23638 | 40050 ft | 520 kts | 142° |
| 2026-05-07 20:02 | 40.39054 | -77.20072 | 39808 ft | 521 kts | 142° |
| 2026-05-07 20:02 | 40.36657 | -77.16512 | 39572 ft | 521 kts | 142° |
| 2026-05-07 20:02 | 40.34255 | -77.12949 | 39358 ft | 522 kts | 142° |
| 2026-05-07 20:02 | 40.31938 | -77.09331 | 39128 ft | 529 kts | 136° |
| 2026-05-07 20:03 | 40.30005 | -77.05152 | 38911 ft | 547 kts | 123° |
| 2026-05-07 20:03 | 40.28654 | -77.00436 | 38684 ft | 556 kts | 115° |
| 2026-05-07 20:03 | 40.27523 | -76.95589 | 38419 ft | 555 kts | 114° |
| 2026-05-07 20:03 | 40.26434 | -76.90769 | 37960 ft | 550 kts | 114° |
| 2026-05-07 20:04 | 40.25345 | -76.85977 | 37389 ft | 547 kts | 115° |
| 2026-05-07 20:04 | 40.24253 | -76.81223 | 36931 ft | 543 kts | 115° |
| 2026-05-07 20:04 | 40.23161 | -76.76506 | 36436 ft | 540 kts | 115° |
| 2026-05-07 20:04 | 40.22070 | -76.71816 | 35937 ft | 537 kts | 115° |
| 2026-05-07 20:05 | 40.20978 | -76.67145 | 35433 ft | 535 kts | 115° |
| 2026-05-07 20:05 | 40.19885 | -76.62486 | 34946 ft | 535 kts | 115° |
| 2026-05-07 20:05 | 40.18805 | -76.57896 | 34377 ft | 537 kts | 116° |
| 2026-05-07 20:05 | 40.17683 | -76.53146 | 33323 ft | 544 kts | 115° |
| 2026-05-07 20:06 | 40.16553 | -76.48377 | 32131 ft | 552 kts | 116° |
| 2026-05-07 20:06 | 40.15424 | -76.43613 | 31051 ft | 558 kts | 116° |
| 2026-05-07 20:06 | 40.14274 | -76.38748 | 30203 ft | 558 kts | 116° |
| 2026-05-07 20:06 | 40.13133 | -76.33921 | 29433 ft | 553 kts | 116° |
| 2026-05-07 20:07 | 40.12117 | -76.29075 | 28727 ft | 554 kts | 108° |
| 2026-05-07 20:07 | 40.11613 | -76.24089 | 28056 ft | 552 kts | 101° |
| 2026-05-07 20:07 | 40.11274 | -76.19124 | 27406 ft | 545 kts | 100° |
| 2026-05-07 20:07 | 40.10958 | -76.14216 | 26743 ft | 538 kts | 100° |
| 2026-05-07 20:08 | 40.10640 | -76.09374 | 26031 ft | 532 kts | 101° |
| 2026-05-07 20:08 | 40.10325 | -76.04661 | 24990 ft | 518 kts | 101° |
| 2026-05-07 20:08 | 40.10009 | -76.00015 | 23403 ft | 512 kts | 100° |
| 2026-05-07 20:08 | 40.09687 | -75.95408 | 21584 ft | 505 kts | 100° |
| 2026-05-07 20:09 | 40.09372 | -75.90900 | 20030 ft | 491 kts | 99° |
| 2026-05-07 20:09 | 40.09064 | -75.86523 | 18555 ft | 477 kts | 99° |
| 2026-05-07 20:09 | 40.08762 | -75.82267 | 17030 ft | 465 kts | 99° |
| 2026-05-07 20:10 | 40.08134 | -75.74036 | 14297 ft | 447 kts | 102° |
| 2026-05-07 20:10 | 40.07690 | -75.70056 | 13441 ft | 439 kts | 103° |
| 2026-05-07 20:10 | 40.07230 | -75.66153 | 12481 ft | 431 kts | 102° |
| 2026-05-07 20:10 | 40.06774 | -75.62317 | 11545 ft | 424 kts | 102° |
| 2026-05-07 20:11 | 40.06327 | -75.58541 | 10595 ft | 418 kts | 101° |
| 2026-05-07 20:11 | 40.05884 | -75.54809 | 9760 ft | 411 kts | 100° |
| 2026-05-07 20:11 | 40.05458 | -75.51208 | 9346 ft | 391 kts | 99° |
| 2026-05-07 20:11 | 40.05055 | -75.47799 | 9086 ft | 368 kts | 99° |
| 2026-05-07 20:12 | 40.04680 | -75.44630 | 8873 ft | 348 kts | 99° |
| 2026-05-07 20:12 | 40.04319 | -75.41591 | 8661 ft | 330 kts | 99° |
| 2026-05-07 20:12 | 40.03974 | -75.38698 | 8308 ft | 316 kts | 99° |
| 2026-05-07 20:12 | 40.03639 | -75.35903 | 7858 ft | 308 kts | 98° |
| 2026-05-07 20:13 | 40.03312 | -75.33176 | 7419 ft | 301 kts | 98° |
| 2026-05-07 20:13 | 40.02993 | -75.30512 | 6956 ft | 294 kts | 98° |
| 2026-05-07 20:13 | 40.02680 | -75.27911 | 6502 ft | 287 kts | 97° |
| 2026-05-07 20:13 | 40.02373 | -75.25369 | 6052 ft | 280 kts | 97° |
| 2026-05-07 20:14 | 40.02073 | -75.22884 | 5461 ft | 275 kts | 97° |
| 2026-05-07 20:14 | 40.01778 | -75.20435 | 4771 ft | 271 kts | 98° |
| 2026-05-07 20:14 | 40.01486 | -75.18010 | 4041 ft | 269 kts | 98° |
| 2026-05-07 20:14 | 40.01196 | -75.15602 | 3303 ft | 268 kts | 98° |
| 2026-05-07 20:15 | 40.00908 | -75.13222 | 2721 ft | 261 kts | 98° |
| 2026-05-07 20:15 | 40.00631 | -75.10944 | 2536 ft | 248 kts | 98° |
| 2026-05-07 20:15 | 40.00365 | -75.08768 | 2438 ft | 237 kts | 98° |
| 2026-05-07 20:15 | 40.00112 | -75.06696 | 2378 ft | 227 kts | 98° |
| 2026-05-07 20:16 | 39.99868 | -75.04702 | 2260 ft | 220 kts | 98° |
| 2026-05-07 20:16 | 39.99567 | -75.02770 | 2131 ft | 216 kts | 106° |
| 2026-05-07 20:16 | 39.98885 | -75.01035 | 2000 ft | 214 kts | 129° |
| 2026-05-07 20:16 | 39.97778 | -74.99814 | 1964 ft | 210 kts | 153° |
| 2026-05-07 20:17 | 39.96449 | -74.99264 | 2002 ft | 193 kts | 175° |
| 2026-05-07 20:17 | 39.95138 | -74.99375 | 1977 ft | 187 kts | 197° |
| 2026-05-07 20:17 | 39.93965 | -75.00061 | 1972 ft | 185 kts | 217° |
| 2026-05-07 20:17 | 39.93052 | -75.01218 | 1974 ft | 183 kts | 237° |
| 2026-05-07 20:18 | 39.92514 | -75.02706 | 1967 ft | 182 kts | 253° |
| 2026-05-07 20:18 | 39.92151 | -75.04289 | 1973 ft | 182 kts | 254° |
| 2026-05-07 20:18 | 39.91783 | -75.05874 | 1973 ft | 183 kts | 253° |
| 2026-05-07 20:18 | 39.91408 | -75.07449 | 1962 ft | 182 kts | 255° |
| 2026-05-07 20:19 | 39.91034 | -75.09028 | 1965 ft | 181 kts | 255° |
| 2026-05-07 20:19 | 39.90680 | -75.10515 | 1868 ft | 165 kts | 255° |
| 2026-05-07 20:19 | 39.90302 | -75.11843 | 1701 ft | 149 kts | 246° |
| 2026-05-07 20:19 | 39.89885 | -75.13019 | 1557 ft | 137 kts | 248° |
| 2026-05-07 20:20 | 39.89583 | -75.14132 | 1374 ft | 126 kts | 256° |
| 2026-05-07 20:20 | 39.89364 | -75.15230 | 1156 ft | 125 kts | 259° |
| 2026-05-07 20:20 | 39.89161 | -75.16333 | 926 ft | 126 kts | 259° |
| 2026-05-07 20:20 | 39.88932 | -75.17424 | 730 ft | 124 kts | 258° |
| 2026-05-07 20:21 | 39.88726 | -75.18491 | 522 ft | 121 kts | 261° |
| 2026-05-07 20:21 | 39.88525 | -75.19525 | 353 ft | 114 kts | 258° |
| 2026-05-07 20:21 | 39.88329 | -75.20502 | 194 ft | 116 kts | 256° |
| 2026-05-07 20:21 | 39.88129 | -75.21516 | 33 ft | 110 kts | 258° |
| 2026-05-07 20:22 | 39.87978 | -75.22307 | 29 ft | 56 kts | 253° |
| 2026-05-07 20:22 | 39.87955 | -75.22578 | 29 ft | 28 kts | 283° |
| 2026-05-07 20:22 | 39.87985 | -75.22710 | 29 ft | 1 kts | 282° |
| 2026-05-07 20:22 | 39.87989 | -75.22742 | 29 ft | 5 kts | 277° |
| 2026-05-07 20:23 | 39.87985 | -75.22805 | 29 ft | 9 kts | 258° |
| 2026-05-07 20:23 | 39.87970 | -75.22903 | 29 ft | 14 kts | 259° |
| 2026-05-07 20:23 | 39.87964 | -75.23035 | 29 ft | 15 kts | 299° |
| 2026-05-07 20:23 | 39.88006 | -75.23071 | 29 ft | 4 kts | 353° |
| 2026-05-07 20:24 | 39.88015 | -75.23068 | 29 ft | 1 kts | 17° |
| 2026-05-07 20:24 | 39.88023 | -75.23051 | 29 ft | 3 kts | 70° |
| 2026-05-07 20:24 | 39.88032 | -75.22997 | 29 ft | 7 kts | 60° |
| 2026-05-07 20:24 | 39.88038 | -75.22956 | 29 ft | 3 kts | 127° |
| 2026-05-07 20:25 | 39.88015 | -75.22943 | 29 ft | 1 kts | 166° |